You are not logged in, Click here to log in
ICAO: FIMP Country: Port Louis
Latitude: -20.4302 Longitude: 57.6836
Total Arrivals: 3 Total Departures: 2
Latest Arrival: MK287 (FMMI-FIMP)錦光. 周 Latest Departure: MK843 (FIMP-FACT)錦光. 周
Scenery: https://en.wikipedia.org/wiki/President_Obiang_Nguema_International_Airport
METAR : FIMP 210700Z 10014KT 9999 BKN017 24/17 Q1023

Sir Seewoosagur Ramgoolam International Airport